createdAt,value
2018-03-19T00:00:13.461Z,1003.09
2018-03-19T00:01:13.547Z,1003.08
2018-03-19T00:02:13.460Z,1003.08
2018-03-19T00:03:13.522Z,1003.08
2018-03-19T00:04:13.540Z,1003.00
2018-03-19T00:05:13.465Z,1002.98
2018-03-19T00:06:13.565Z,1003.03
2018-03-19T00:07:13.464Z,1003.00
2018-03-19T00:08:13.438Z,1003.01
2018-03-19T00:09:13.462Z,1002.95
2018-03-19T00:10:13.548Z,1003.01
2018-03-19T00:11:13.440Z,1003.05
2018-03-19T00:12:13.505Z,1003.02
2018-03-19T00:13:13.470Z,1003.05
2018-03-19T00:14:13.508Z,1003.06
2018-03-19T00:15:13.447Z,1003.04
2018-03-19T00:16:13.530Z,1003.07
2018-03-19T00:17:13.443Z,1003.09
2018-03-19T00:18:13.507Z,1003.06
2018-03-19T00:19:13.438Z,1003.05
2018-03-19T00:20:13.507Z,1003.09
2018-03-19T00:21:13.514Z,1003.10
2018-03-19T00:22:13.476Z,1003.10
2018-03-19T00:23:13.561Z,1003.14
2018-03-19T00:24:13.476Z,1003.07
2018-03-19T00:25:13.514Z,1003.11
2018-03-19T00:26:13.472Z,1003.04
2018-03-19T00:27:13.557Z,1003.06
2018-03-19T00:28:13.556Z,1002.99
2018-03-19T00:29:13.592Z,1003.00
2018-03-19T00:30:13.517Z,1003.00
2018-03-19T00:31:13.583Z,1002.90
2018-03-19T00:32:13.543Z,1002.91
2018-03-19T00:33:13.526Z,1002.97
2018-03-19T00:34:13.568Z,1002.93
2018-03-19T00:35:13.577Z,1002.89
2018-03-19T00:36:13.570Z,1002.93
2018-03-19T00:37:13.559Z,1002.89
2018-03-19T00:38:13.516Z,1002.87
2018-03-19T00:39:13.575Z,1002.85
2018-03-19T00:40:13.526Z,1002.83
2018-03-19T00:41:13.492Z,1002.80
2018-03-19T00:42:13.465Z,1002.86
2018-03-19T00:43:13.526Z,1002.83
2018-03-19T00:44:13.533Z,1002.78
2018-03-19T00:45:13.486Z,1002.85
2018-03-19T00:46:13.465Z,1002.88
2018-03-19T00:47:13.524Z,1002.86
2018-03-19T00:48:13.576Z,1002.89
2018-03-19T00:49:13.490Z,1002.81
2018-03-19T00:50:13.460Z,1002.84
2018-03-19T00:51:13.574Z,1002.85
2018-03-19T00:52:13.488Z,1002.79
2018-03-19T00:53:13.494Z,1002.80
2018-03-19T00:54:13.534Z,1002.80
2018-03-19T00:55:13.583Z,1002.86
2018-03-19T00:56:13.505Z,1002.83
2018-03-19T00:57:13.576Z,1002.79
2018-03-19T00:58:13.471Z,1002.79
2018-03-19T00:59:13.583Z,1002.82
2018-03-19T01:00:13.466Z,1002.77
2018-03-19T01:01:13.598Z,1002.73
2018-03-19T01:02:13.593Z,1002.79
2018-03-19T01:03:13.563Z,1002.75
2018-03-19T01:04:13.561Z,1002.78
2018-03-19T01:05:13.544Z,1002.76
2018-03-19T01:06:13.499Z,1002.81
2018-03-19T01:07:13.555Z,1002.81
2018-03-19T01:08:13.468Z,1002.74
2018-03-19T01:09:13.535Z,1002.78
2018-03-19T01:10:13.476Z,1002.78
2018-03-19T01:11:13.592Z,1002.77
2018-03-19T01:12:13.481Z,1002.74
2018-03-19T01:13:13.601Z,1002.75
2018-03-19T01:14:13.499Z,1002.72
2018-03-19T01:15:13.499Z,1002.75
2018-03-19T01:16:13.569Z,1002.71
2018-03-19T01:17:13.540Z,1002.74
2018-03-19T01:18:13.594Z,1002.72
2018-03-19T01:19:13.548Z,1002.76
2018-03-19T01:20:13.479Z,1002.74
2018-03-19T01:21:13.485Z,1002.74
2018-03-19T01:22:13.592Z,1002.75
2018-03-19T01:23:13.510Z,1002.71
2018-03-19T01:24:13.514Z,1002.72
2018-03-19T01:25:13.604Z,1002.76
2018-03-19T01:26:13.543Z,1002.78
2018-03-19T01:27:13.596Z,1002.71
2018-03-19T01:28:13.559Z,1002.72
2018-03-19T01:29:13.607Z,1002.76
2018-03-19T01:30:13.547Z,1002.74
2018-03-19T01:31:13.612Z,1002.75
2018-03-19T01:32:13.576Z,1002.70
2018-03-19T01:33:13.550Z,1002.75
2018-03-19T01:34:13.491Z,1002.71
2018-03-19T01:35:13.530Z,1002.65
2018-03-19T01:36:13.611Z,1002.65
2018-03-19T01:37:13.599Z,1002.63
2018-03-19T01:38:13.514Z,1002.61
2018-03-19T01:39:13.557Z,1002.58
2018-03-19T01:40:13.498Z,1002.63
2018-03-19T01:41:13.552Z,1002.58
2018-03-19T01:42:13.608Z,1002.62
2018-03-19T01:43:13.500Z,1002.60
2018-03-19T01:44:13.610Z,1002.57
2018-03-19T01:45:13.525Z,1002.57
2018-03-19T01:46:13.557Z,1002.58
2018-03-19T01:47:13.558Z,1002.58
2018-03-19T01:48:13.562Z,1002.59
2018-03-19T01:49:13.569Z,1002.56
2018-03-19T01:50:13.564Z,1002.59
2018-03-19T01:51:13.563Z,1002.61
2018-03-19T01:52:13.533Z,1002.54
2018-03-19T01:53:13.617Z,1002.55
2018-03-19T01:54:13.533Z,1002.55
2018-03-19T01:55:13.610Z,1002.60
2018-03-19T01:56:13.588Z,1002.57
2018-03-19T01:57:13.612Z,1002.54
2018-03-19T01:58:13.525Z,1002.58
2018-03-19T01:59:13.542Z,1002.58
2018-03-19T02:00:13.562Z,1002.56
2018-03-19T02:01:13.536Z,1002.60
2018-03-19T02:02:13.627Z,1002.58
2018-03-19T02:03:13.621Z,1002.59
2018-03-19T02:04:13.504Z,1002.54
2018-03-19T02:05:13.632Z,1002.54
2018-03-19T02:06:13.542Z,1002.52
2018-03-19T02:07:13.568Z,1002.57
2018-03-19T02:08:13.618Z,1002.50
2018-03-19T02:09:13.600Z,1002.55
2018-03-19T02:10:13.548Z,1002.53
2018-03-19T02:11:13.626Z,1002.50
2018-03-19T02:12:13.578Z,1002.52
2018-03-19T02:13:13.543Z,1002.54
2018-03-19T02:14:13.581Z,1002.52
2018-03-19T02:15:13.512Z,1002.56
2018-03-19T02:16:13.604Z,1002.55
2018-03-19T02:17:13.538Z,1002.56
2018-03-19T02:18:13.633Z,1002.50
2018-03-19T02:19:13.626Z,1002.55
2018-03-19T02:20:13.523Z,1002.53
2018-03-19T02:21:13.521Z,1002.53
2018-03-19T02:22:13.573Z,1002.51
2018-03-19T02:23:13.630Z,1002.53
2018-03-19T02:24:13.523Z,1002.49
2018-03-19T02:25:13.518Z,1002.45
2018-03-19T02:26:13.517Z,1002.53
2018-03-19T02:27:13.637Z,1002.48
2018-03-19T02:28:13.634Z,1002.47
2018-03-19T02:29:13.563Z,1002.42
2018-03-19T02:30:13.617Z,1002.50
2018-03-19T02:31:13.552Z,1002.44
2018-03-19T02:32:13.617Z,1002.45
2018-03-19T02:33:13.643Z,1002.37
2018-03-19T02:34:13.598Z,1002.43
2018-03-19T02:35:13.654Z,1002.41
2018-03-19T02:36:13.639Z,1002.38
2018-03-19T02:37:13.524Z,1002.37
2018-03-19T02:38:13.599Z,1002.36
2018-03-19T02:39:13.637Z,1002.41
2018-03-19T02:40:13.548Z,1002.43
2018-03-19T02:41:13.620Z,1002.40
2018-03-19T02:42:13.536Z,1002.44
2018-03-19T02:43:13.606Z,1002.45
2018-03-19T02:44:13.646Z,1002.43
2018-03-19T02:45:13.553Z,1002.39
2018-03-19T02:46:13.641Z,1002.45
2018-03-19T02:47:13.648Z,1002.48
2018-03-19T02:48:13.596Z,1002.50
2018-03-19T02:49:13.647Z,1002.46
2018-03-19T02:50:13.555Z,1002.48
2018-03-19T02:51:13.650Z,1002.46
2018-03-19T02:52:13.603Z,1002.44
2018-03-19T02:53:13.608Z,1002.42
2018-03-19T02:54:13.658Z,1002.42
2018-03-19T02:55:13.606Z,1002.45
2018-03-19T02:56:13.537Z,1002.48
2018-03-19T02:57:13.570Z,1002.48
2018-03-19T02:58:13.656Z,1002.46
2018-03-19T02:59:13.603Z,1002.51
2018-03-19T03:00:13.542Z,1002.44
2018-03-19T03:01:13.575Z,1002.50
2018-03-19T03:02:13.537Z,1002.46
2018-03-19T03:03:13.613Z,1002.43
2018-03-19T03:04:13.629Z,1002.49
2018-03-19T03:05:13.546Z,1002.49
2018-03-19T03:06:13.563Z,1002.48
2018-03-19T03:07:13.667Z,1002.52
2018-03-19T03:08:13.552Z,1002.55
2018-03-19T03:09:13.550Z,1002.55
2018-03-19T03:10:13.632Z,1002.55
2018-03-19T03:11:13.571Z,1002.58
2018-03-19T03:12:13.610Z,1002.58
2018-03-19T03:13:13.637Z,1002.59
2018-03-19T03:14:13.612Z,1002.58
2018-03-19T03:15:13.553Z,1002.59
2018-03-19T03:16:13.572Z,1002.58
2018-03-19T03:17:13.661Z,1002.62
2018-03-19T03:18:13.548Z,1002.62
2018-03-19T03:19:13.620Z,1002.60
2018-03-19T03:20:13.663Z,1002.56
2018-03-19T03:21:13.552Z,1002.58
2018-03-19T03:22:13.588Z,1002.56
2018-03-19T03:23:13.671Z,1002.58
2018-03-19T03:24:13.678Z,1002.60
2018-03-19T03:25:13.668Z,1002.58
2018-03-19T03:26:13.677Z,1002.61
2018-03-19T03:27:13.590Z,1002.62
2018-03-19T03:28:13.661Z,1002.66
2018-03-19T03:29:13.664Z,1002.61
2018-03-19T03:30:13.633Z,1002.62
2018-03-19T03:31:13.622Z,1002.68
2018-03-19T03:32:13.648Z,1002.63
2018-03-19T03:33:13.565Z,1002.65
2018-03-19T03:34:13.583Z,1002.71
2018-03-19T03:35:13.681Z,1002.73
2018-03-19T03:36:13.564Z,1002.70
2018-03-19T03:37:13.626Z,1002.75
2018-03-19T03:38:13.568Z,1002.68
2018-03-19T03:39:13.595Z,1002.72
2018-03-19T03:40:13.675Z,1002.70
2018-03-19T03:41:13.680Z,1002.68
2018-03-19T03:42:13.565Z,1002.69
2018-03-19T03:43:13.637Z,1002.72
2018-03-19T03:44:13.679Z,1002.70
2018-03-19T03:45:13.688Z,1002.75
2018-03-19T03:46:13.633Z,1002.75
2018-03-19T03:47:13.677Z,1002.73
2018-03-19T03:48:13.693Z,1002.72
2018-03-19T03:49:13.638Z,1002.73
2018-03-19T03:50:13.600Z,1002.79
2018-03-19T03:51:13.575Z,1002.76
2018-03-19T03:52:13.567Z,1002.76
2018-03-19T03:53:13.693Z,1002.73
2018-03-19T03:54:13.687Z,1002.73
2018-03-19T03:55:13.686Z,1002.75
2018-03-19T03:56:13.576Z,1002.77
2018-03-19T03:57:13.579Z,1002.71
2018-03-19T03:58:13.692Z,1002.72
2018-03-19T03:59:13.691Z,1002.75
2018-03-19T04:00:13.572Z,1002.78
2018-03-19T04:01:13.602Z,1002.74
2018-03-19T04:02:13.684Z,1002.73
2018-03-19T04:03:13.584Z,1002.78
2018-03-19T04:04:13.705Z,1002.82
2018-03-19T04:05:13.580Z,1002.75
2018-03-19T04:06:13.583Z,1002.79
2018-03-19T04:07:13.688Z,1002.80
2018-03-19T04:08:13.695Z,1002.76
2018-03-19T04:09:13.678Z,1002.79
2018-03-19T04:10:13.611Z,1002.81
2018-03-19T04:11:13.611Z,1002.79
2018-03-19T04:12:13.655Z,1002.78
2018-03-19T04:13:13.658Z,1002.78
2018-03-19T04:14:13.657Z,1002.83
2018-03-19T04:15:13.708Z,1002.83
2018-03-19T04:16:13.652Z,1002.83
2018-03-19T04:17:13.707Z,1002.84
2018-03-19T04:18:13.661Z,1002.79
2018-03-19T04:19:13.591Z,1002.78
2018-03-19T04:20:13.612Z,1002.79
2018-03-19T04:21:13.620Z,1002.81
2018-03-19T04:22:13.622Z,1002.81
2018-03-19T04:23:13.626Z,1002.80
2018-03-19T04:24:13.629Z,1002.81
2018-03-19T04:25:13.663Z,1002.79
2018-03-19T04:26:13.663Z,1002.76
2018-03-19T04:27:13.712Z,1002.82
2018-03-19T04:28:13.628Z,1002.83
2018-03-19T04:29:13.600Z,1002.82
2018-03-19T04:30:13.662Z,1002.84
2018-03-19T04:31:13.671Z,1002.86
2018-03-19T04:32:13.687Z,1002.84
2018-03-19T04:33:13.658Z,1002.81
2018-03-19T04:34:13.703Z,1002.85
2018-03-19T04:35:13.595Z,1002.82
2018-03-19T04:36:13.690Z,1002.83
2018-03-19T04:37:13.719Z,1002.82
2018-03-19T04:38:13.690Z,1002.83
2018-03-19T04:39:13.714Z,1002.84
2018-03-19T04:40:13.626Z,1002.85
2018-03-19T04:41:13.607Z,1002.85
2018-03-19T04:42:13.693Z,1002.85
2018-03-19T04:43:13.677Z,1002.83
2018-03-19T04:44:13.633Z,1002.85
2018-03-19T04:45:13.682Z,1002.84
2018-03-19T04:46:13.715Z,1002.87
2018-03-19T04:47:13.636Z,1002.88
2018-03-19T04:48:13.604Z,1002.89
2018-03-19T04:49:13.696Z,1002.85
2018-03-19T04:50:13.642Z,1002.87
2018-03-19T04:51:13.694Z,1002.86
2018-03-19T04:52:13.634Z,1002.94
2018-03-19T04:53:13.644Z,1002.89
2018-03-19T04:54:13.701Z,1002.88
2018-03-19T04:55:13.642Z,1002.92
2018-03-19T04:56:13.616Z,1002.88
2018-03-19T04:57:13.700Z,1002.91
2018-03-19T04:58:13.702Z,1002.90
2018-03-19T04:59:13.723Z,1002.92
2018-03-19T05:00:13.735Z,1002.90
2018-03-19T05:01:13.681Z,1002.93
2018-03-19T05:02:13.705Z,1002.88
2018-03-19T05:03:13.651Z,1002.93
2018-03-19T05:04:13.639Z,1002.87
2018-03-19T05:05:13.680Z,1002.89
2018-03-19T05:06:13.733Z,1002.92
2018-03-19T05:07:13.619Z,1002.90
2018-03-19T05:08:13.650Z,1002.92
2018-03-19T05:09:13.682Z,1002.90
2018-03-19T05:10:13.646Z,1002.91
2018-03-19T05:11:13.780Z,1002.88
2018-03-19T05:12:13.711Z,1002.93
2018-03-19T05:13:13.713Z,1002.95
2018-03-19T05:14:13.649Z,1002.94
2018-03-19T05:15:13.740Z,1002.86
2018-03-19T05:16:13.661Z,1002.95
2018-03-19T05:17:13.733Z,1002.95
2018-03-19T05:18:13.751Z,1002.96
2018-03-19T05:19:13.625Z,1002.96
2018-03-19T05:20:13.733Z,1002.97
2018-03-19T05:21:13.654Z,1002.93
2018-03-19T05:22:13.695Z,1002.94
2018-03-19T05:23:13.694Z,1002.92
2018-03-19T05:24:13.751Z,1002.97
2018-03-19T05:25:13.632Z,1002.94
2018-03-19T05:26:13.663Z,1002.96
2018-03-19T05:27:13.737Z,1003.01
2018-03-19T05:28:13.661Z,1002.93
2018-03-19T05:29:13.742Z,1002.95
2018-03-19T05:30:13.742Z,1003.00
2018-03-19T05:31:13.720Z,1003.00
2018-03-19T05:32:13.753Z,1002.97
2018-03-19T05:33:13.706Z,1002.95
2018-03-19T05:34:13.750Z,1002.96
2018-03-19T05:35:13.656Z,1002.93
2018-03-19T05:36:13.642Z,1002.93
2018-03-19T05:37:13.723Z,1002.95
2018-03-19T05:38:13.638Z,1002.94
2018-03-19T05:39:13.632Z,1002.94
2018-03-19T05:40:13.706Z,1002.98
2018-03-19T05:41:13.747Z,1002.97
2018-03-19T05:42:13.704Z,1002.98
2018-03-19T05:43:13.641Z,1002.95
2018-03-19T05:44:13.735Z,1002.97
2018-03-19T05:45:13.644Z,1002.99
2018-03-19T05:46:13.666Z,1003.00
2018-03-19T05:47:13.727Z,1003.04
2018-03-19T05:48:13.639Z,1003.02
2018-03-19T05:49:13.643Z,1003.08
2018-03-19T05:50:13.754Z,1003.12
2018-03-19T05:51:13.733Z,1003.12
2018-03-19T05:52:13.756Z,1003.11
2018-03-19T05:53:13.675Z,1003.14
2018-03-19T05:54:13.711Z,1003.14
2018-03-19T05:55:13.680Z,1003.17
2018-03-19T05:56:13.760Z,1003.20
2018-03-19T05:57:13.702Z,1003.23
2018-03-19T05:58:13.733Z,1003.18
2018-03-19T05:59:13.645Z,1003.20
2018-03-19T06:00:13.742Z,1003.26
2018-03-19T06:01:13.743Z,1003.27
2018-03-19T06:02:13.639Z,1003.30
2018-03-19T06:03:13.743Z,1003.31
2018-03-19T06:04:13.743Z,1003.31
2018-03-19T06:05:13.723Z,1003.31
2018-03-19T06:06:13.743Z,1003.32
2018-03-19T06:07:13.659Z,1003.37
2018-03-19T06:08:13.709Z,1003.35
2018-03-19T06:09:13.770Z,1003.39
2018-03-19T06:10:13.710Z,1003.44
2018-03-19T06:11:13.675Z,1003.42
2018-03-19T06:12:13.764Z,1003.44
2018-03-19T06:13:13.649Z,1003.46
2018-03-19T06:14:13.678Z,1003.44
2018-03-19T06:15:13.719Z,1003.45
2018-03-19T06:16:13.655Z,1003.45
2018-03-19T06:17:13.664Z,1003.50
2018-03-19T06:18:13.755Z,1003.53
2018-03-19T06:19:13.729Z,1003.55
2018-03-19T06:20:13.716Z,1003.55
2018-03-19T06:21:13.752Z,1003.51
2018-03-19T06:22:13.718Z,1003.53
2018-03-19T06:23:13.747Z,1003.51
2018-03-19T06:24:13.726Z,1003.55
2018-03-19T06:25:13.773Z,1003.54
2018-03-19T06:26:13.661Z,1003.54
2018-03-19T06:27:13.728Z,1003.55
2018-03-19T06:28:13.775Z,1003.58
2018-03-19T06:29:13.748Z,1003.54
2018-03-19T06:30:13.663Z,1003.54
2018-03-19T06:31:13.755Z,1003.60
2018-03-19T06:32:13.693Z,1003.56
2018-03-19T06:33:13.688Z,1003.58
2018-03-19T06:34:13.754Z,1003.55
2018-03-19T06:35:13.739Z,1003.56
2018-03-19T06:36:13.702Z,1003.57
2018-03-19T06:37:13.701Z,1003.57
2018-03-19T06:38:13.779Z,1003.57
2018-03-19T06:39:13.728Z,1003.57
2018-03-19T06:40:13.786Z,1003.55
2018-03-19T06:41:13.754Z,1003.60
2018-03-19T06:42:13.703Z,1003.54
2018-03-19T06:43:13.678Z,1003.60
2018-03-19T06:44:13.790Z,1003.63
2018-03-19T06:45:13.762Z,1003.55
2018-03-19T06:46:13.814Z,1003.61
2018-03-19T06:47:13.765Z,1003.59
2018-03-19T06:48:13.759Z,1003.56
2018-03-19T06:49:13.706Z,1003.55
2018-03-19T06:50:13.671Z,1003.60
2018-03-19T06:51:13.769Z,1003.63
2018-03-19T06:52:13.769Z,1003.65
2018-03-19T06:53:13.747Z,1003.59
2018-03-19T06:54:13.749Z,1003.61
2018-03-19T06:55:13.703Z,1003.61
2018-03-19T06:56:13.703Z,1003.62
2018-03-19T06:57:13.677Z,1003.58
2018-03-19T06:58:13.741Z,1003.61
2018-03-19T06:59:13.755Z,1003.59
2018-03-19T07:00:13.690Z,1003.54
2018-03-19T07:01:13.775Z,1003.63
2018-03-19T07:02:13.794Z,1003.62
2018-03-19T07:03:13.753Z,1003.65
2018-03-19T07:04:13.803Z,1003.66
2018-03-19T07:05:13.687Z,1003.60
2018-03-19T07:06:13.747Z,1003.60
2018-03-19T07:07:13.744Z,1003.62
2018-03-19T07:08:13.722Z,1003.59
2018-03-19T07:09:13.714Z,1003.55
2018-03-19T07:10:13.800Z,1003.61
2018-03-19T07:11:13.800Z,1003.58
2018-03-19T07:12:13.727Z,1003.60
2018-03-19T07:13:13.803Z,1003.60
2018-03-19T07:14:13.748Z,1003.55
2018-03-19T07:15:13.693Z,1003.58
2018-03-19T07:16:13.752Z,1003.59
2018-03-19T07:17:13.808Z,1003.60
2018-03-19T07:18:13.812Z,1003.61
2018-03-19T07:19:13.786Z,1003.56
2018-03-19T07:20:13.753Z,1003.57
2018-03-19T07:21:13.815Z,1003.58
2018-03-19T07:22:13.691Z,1003.58
2018-03-19T07:23:13.695Z,1003.58
2018-03-19T07:24:13.724Z,1003.64
2018-03-19T07:25:13.809Z,1003.66
2018-03-19T07:26:13.699Z,1003.66
2018-03-19T07:27:13.782Z,1003.63
2018-03-19T07:28:13.697Z,1003.68
2018-03-19T07:29:13.764Z,1003.64
2018-03-19T07:30:13.731Z,1003.66
2018-03-19T07:31:13.756Z,1003.67
2018-03-19T07:32:13.822Z,1003.66
2018-03-19T07:33:13.733Z,1003.69
2018-03-19T07:34:13.770Z,1003.65
2018-03-19T07:35:13.765Z,1003.60
2018-03-19T07:36:13.816Z,1003.65
2018-03-19T07:37:13.796Z,1003.65
2018-03-19T07:38:13.733Z,1003.68
2018-03-19T07:39:13.818Z,1003.67
2018-03-19T07:40:13.711Z,1003.60
2018-03-19T07:41:13.715Z,1003.67
2018-03-19T07:42:13.764Z,1003.61
2018-03-19T07:43:13.793Z,1003.65
2018-03-19T07:44:13.821Z,1003.58
2018-03-19T07:45:13.828Z,1003.63
2018-03-19T07:46:13.778Z,1003.64
2018-03-19T07:47:13.733Z,1003.63
2018-03-19T07:48:13.824Z,1003.67
2018-03-19T07:49:13.825Z,1003.66
2018-03-19T07:50:13.805Z,1003.64
2018-03-19T07:51:13.825Z,1003.60
2018-03-19T07:52:13.836Z,1003.67
2018-03-19T07:53:13.768Z,1003.63
2018-03-19T07:54:13.774Z,1003.65
2018-03-19T07:55:13.723Z,1003.64
2018-03-19T07:56:13.833Z,1003.64
2018-03-19T07:57:13.815Z,1003.61
2018-03-19T07:58:13.742Z,1003.66
2018-03-19T07:59:13.779Z,1003.68
2018-03-19T08:00:13.740Z,1003.65
2018-03-19T08:01:13.717Z,1003.65
2018-03-19T08:02:13.784Z,1003.69
2018-03-19T08:03:13.719Z,1003.73
2018-03-19T08:04:13.734Z,1003.70
2018-03-19T08:05:13.832Z,1003.67
2018-03-19T08:06:13.793Z,1003.73
2018-03-19T08:07:13.809Z,1003.68
2018-03-19T08:08:13.782Z,1003.75
2018-03-19T08:09:13.747Z,1003.75
2018-03-19T08:10:13.782Z,1003.80
2018-03-19T08:11:13.838Z,1003.80
2018-03-19T08:12:13.783Z,1003.79
2018-03-19T08:13:13.788Z,1003.76
2018-03-19T08:14:13.841Z,1003.83
2018-03-19T08:15:13.845Z,1003.84
2018-03-19T08:16:13.735Z,1003.85
2018-03-19T08:17:13.753Z,1003.83
2018-03-19T08:18:13.789Z,1003.85
2018-03-19T08:19:13.852Z,1003.86
2018-03-19T08:20:13.809Z,1003.82
2018-03-19T08:21:13.849Z,1003.83
2018-03-19T08:22:13.853Z,1003.89
2018-03-19T08:23:13.816Z,1003.87
2018-03-19T08:24:13.883Z,1003.85
2018-03-19T08:25:13.732Z,1003.83
2018-03-19T08:26:13.819Z,1003.81
2018-03-19T08:27:13.765Z,1003.81
2018-03-19T08:28:13.756Z,1003.76
2018-03-19T08:29:13.855Z,1003.78
2018-03-19T08:30:13.856Z,1003.78
2018-03-19T08:31:13.744Z,1003.76
2018-03-19T08:32:13.856Z,1003.81
2018-03-19T08:33:13.760Z,1003.76
2018-03-19T08:34:13.850Z,1003.74
2018-03-19T08:35:13.745Z,1003.75
2018-03-19T08:36:13.736Z,1003.75
2018-03-19T08:37:13.747Z,1003.69
2018-03-19T08:38:13.734Z,1003.68
2018-03-19T08:39:13.765Z,1003.67
2018-03-19T08:40:13.736Z,1003.70
2018-03-19T08:41:13.817Z,1003.68
2018-03-19T08:42:13.750Z,1003.67
2018-03-19T08:43:13.807Z,1003.73
2018-03-19T08:44:13.835Z,1003.66
2018-03-19T08:45:13.858Z,1003.75
2018-03-19T08:46:13.800Z,1003.74
2018-03-19T08:47:13.746Z,1003.68
2018-03-19T08:48:13.811Z,1003.73
2018-03-19T08:49:13.752Z,1003.69
2018-03-19T08:50:13.865Z,1003.66
2018-03-19T08:51:13.775Z,1003.66
2018-03-19T08:52:13.744Z,1003.65
2018-03-19T08:53:13.858Z,1003.63
2018-03-19T08:54:13.808Z,1003.65
2018-03-19T08:55:13.749Z,1003.67
2018-03-19T08:56:13.781Z,1003.66
2018-03-19T08:57:13.782Z,1003.70
2018-03-19T08:58:13.818Z,1003.59
2018-03-19T08:59:13.814Z,1003.58
2018-03-19T09:00:13.867Z,1003.62
2018-03-19T09:01:13.755Z,1003.63
2018-03-19T09:02:13.782Z,1003.71
2018-03-19T09:03:13.757Z,1003.64
2018-03-19T09:04:13.876Z,1003.64
2018-03-19T09:05:13.871Z,1003.72
2018-03-19T09:06:13.749Z,1003.67
2018-03-19T09:07:13.900Z,1003.64
2018-03-19T09:08:13.839Z,1003.60
2018-03-19T09:09:13.870Z,1003.63
2018-03-19T09:10:13.767Z,1003.61
2018-03-19T09:11:13.843Z,1003.59
2018-03-19T09:12:13.872Z,1003.67
2018-03-19T09:13:13.822Z,1003.57
2018-03-19T09:14:13.885Z,1003.60
2018-03-19T09:15:13.882Z,1003.68
2018-03-19T09:16:13.772Z,1003.69
2018-03-19T09:17:13.796Z,1003.70
2018-03-19T09:18:13.831Z,1003.67
2018-03-19T09:19:13.878Z,1003.62
2018-03-19T09:20:13.821Z,1003.64
2018-03-19T09:21:13.854Z,1003.65
2018-03-19T09:22:13.877Z,1003.65
2018-03-19T09:23:13.798Z,1003.59
2018-03-19T09:24:13.837Z,1003.63
2018-03-19T09:25:13.920Z,1003.64
2018-03-19T09:26:13.831Z,1003.61
2018-03-19T09:27:13.841Z,1003.64
2018-03-19T09:28:13.861Z,1003.68
2018-03-19T09:29:13.858Z,1003.62
2018-03-19T09:30:13.800Z,1003.67
2018-03-19T09:31:13.786Z,1003.65
2018-03-19T09:32:13.891Z,1003.62
2018-03-19T09:33:13.860Z,1003.65
2018-03-19T09:34:13.773Z,1003.69
2018-03-19T09:35:13.820Z,1003.66
2018-03-19T09:36:13.782Z,1003.66
2018-03-19T09:37:13.832Z,1003.68
2018-03-19T09:38:13.784Z,1003.69
2018-03-19T09:39:13.774Z,1003.70
2018-03-19T09:40:13.846Z,1003.69
2018-03-19T09:41:13.848Z,1003.74
2018-03-19T09:42:13.869Z,1003.72
2018-03-19T09:43:13.851Z,1003.72
2018-03-19T09:44:13.790Z,1003.68
2018-03-19T09:45:13.848Z,1003.75
2018-03-19T09:46:13.778Z,1003.75
2018-03-19T09:47:13.779Z,1003.71
2018-03-19T09:48:13.923Z,1003.77
2018-03-19T09:49:13.867Z,1003.75
2018-03-19T09:50:13.848Z,1003.75
2018-03-19T09:51:13.813Z,1003.76
2018-03-19T09:52:13.901Z,1003.72
2018-03-19T09:53:13.781Z,1003.67
2018-03-19T09:54:13.813Z,1003.67
2018-03-19T09:55:13.878Z,1003.68
2018-03-19T09:56:13.895Z,1003.68
2018-03-19T09:57:13.796Z,1003.69
2018-03-19T09:58:13.787Z,1003.63
2018-03-19T09:59:13.856Z,1003.66
2018-03-19T10:00:13.866Z,1003.61
2018-03-19T10:01:13.910Z,1003.63
2018-03-19T10:02:13.791Z,1003.65
2018-03-19T10:03:13.866Z,1003.62
2018-03-19T10:04:13.823Z,1003.69
2018-03-19T10:05:13.886Z,1003.64
2018-03-19T10:06:13.883Z,1003.64
2018-03-19T10:07:13.908Z,1003.64
2018-03-19T10:08:13.825Z,1003.61
2018-03-19T10:09:13.881Z,1003.62
2018-03-19T10:10:13.819Z,1003.62
2018-03-19T10:11:13.861Z,1003.62
2018-03-19T10:12:13.908Z,1003.54
2018-03-19T10:13:13.805Z,1003.62
2018-03-19T10:14:13.825Z,1003.55
2018-03-19T10:15:13.810Z,1003.54
2018-03-19T10:16:13.892Z,1003.57
2018-03-19T10:17:13.912Z,1003.54
2018-03-19T10:18:13.923Z,1003.49
2018-03-19T10:19:13.920Z,1003.48
2018-03-19T10:20:13.884Z,1003.51
2018-03-19T10:21:13.921Z,1003.47
2018-03-19T10:22:13.801Z,1003.43
2018-03-19T10:23:13.862Z,1003.46
2018-03-19T10:24:13.828Z,1003.39
2018-03-19T10:25:13.835Z,1003.45
2018-03-19T10:26:13.834Z,1003.46
2018-03-19T10:27:13.896Z,1003.43
2018-03-19T10:28:13.950Z,1003.44
2018-03-19T10:29:13.869Z,1003.42
2018-03-19T10:30:13.929Z,1003.37
2018-03-19T10:31:13.867Z,1003.41
2018-03-19T10:32:13.810Z,1003.35
2018-03-19T10:33:13.923Z,1003.34
2018-03-19T10:34:13.928Z,1003.38
2018-03-19T10:35:13.929Z,1003.34
2018-03-19T10:36:13.867Z,1003.35
2018-03-19T10:37:13.879Z,1003.35
2018-03-19T10:38:13.907Z,1003.34
2018-03-19T10:39:13.923Z,1003.38
2018-03-19T10:40:13.909Z,1003.33
2018-03-19T10:41:13.844Z,1003.40
2018-03-19T10:42:13.885Z,1003.34
2018-03-19T10:43:13.898Z,1003.33
2018-03-19T10:44:13.930Z,1003.27
2018-03-19T10:45:13.813Z,1003.29
2018-03-19T10:46:13.807Z,1003.35
2018-03-19T10:47:13.903Z,1003.32
2018-03-19T10:48:13.882Z,1003.34
2018-03-19T10:49:13.820Z,1003.31
2018-03-19T10:50:13.828Z,1003.30
2018-03-19T10:51:13.850Z,1003.26
2018-03-19T10:52:13.935Z,1003.28
2018-03-19T10:53:13.831Z,1003.25
2018-03-19T10:54:13.816Z,1003.23
2018-03-19T10:55:13.895Z,1003.28
2018-03-19T10:56:13.913Z,1003.27
2018-03-19T10:57:13.885Z,1003.22
2018-03-19T10:58:13.939Z,1003.21
2018-03-19T10:59:13.937Z,1003.22
2018-03-19T11:00:13.898Z,1003.20
2018-03-19T11:01:13.896Z,1002.98
2018-03-19T11:02:13.945Z,1003.21
2018-03-19T11:03:13.948Z,1003.18
2018-03-19T11:04:13.941Z,1003.19
2018-03-19T11:05:13.949Z,1003.17
2018-03-19T11:06:13.942Z,1003.15
2018-03-19T11:07:13.839Z,1003.17
2018-03-19T11:08:13.917Z,1003.24
2018-03-19T11:09:13.832Z,1003.25
2018-03-19T11:10:13.925Z,1003.16
2018-03-19T11:11:13.943Z,1003.17
2018-03-19T11:12:14.011Z,1003.13
2018-03-19T11:13:13.842Z,1003.14
2018-03-19T11:14:13.896Z,1003.16
2018-03-19T11:15:13.847Z,1003.10
2018-03-19T11:16:13.930Z,1003.11
2018-03-19T11:17:13.897Z,1003.10
2018-03-19T11:18:13.891Z,1003.07
2018-03-19T11:19:13.906Z,1003.04
2018-03-19T11:20:13.837Z,1003.08
2018-03-19T11:21:13.960Z,1003.01
2018-03-19T11:22:13.844Z,1003.04
2018-03-19T11:23:13.849Z,1003.04
2018-03-19T11:24:13.960Z,1003.01
2018-03-19T11:25:13.871Z,1003.05
2018-03-19T11:26:13.902Z,1003.02
2018-03-19T11:27:13.957Z,1003.05
2018-03-19T11:28:13.906Z,1003.05
2018-03-19T11:29:13.963Z,1003.04
2018-03-19T11:30:13.940Z,1003.08
2018-03-19T11:31:13.875Z,1003.06
2018-03-19T11:32:13.900Z,1003.05
2018-03-19T11:33:13.941Z,1003.11
2018-03-19T11:34:13.909Z,1003.07
2018-03-19T11:35:13.904Z,1003.05
2018-03-19T11:36:13.902Z,1003.09
2018-03-19T11:37:13.907Z,1003.08
2018-03-19T11:38:13.856Z,1003.07
2018-03-19T11:39:13.883Z,1003.04
2018-03-19T11:40:13.952Z,1003.02
2018-03-19T11:41:13.970Z,1003.06
2018-03-19T11:42:13.911Z,1003.01
2018-03-19T11:43:13.851Z,1003.04
2018-03-19T11:44:13.973Z,1003.05
2018-03-19T11:45:13.966Z,1003.07
2018-03-19T11:46:13.849Z,1003.10
2018-03-19T11:47:13.921Z,1003.04
2018-03-19T11:48:13.854Z,1003.12
2018-03-19T11:49:13.887Z,1003.10
2018-03-19T11:50:13.972Z,1003.11
2018-03-19T11:51:13.977Z,1003.13
2018-03-19T11:52:13.866Z,1003.12
2018-03-19T11:53:13.881Z,1003.09
2018-03-19T11:54:13.924Z,1003.10
2018-03-19T11:55:13.978Z,1003.04
2018-03-19T11:56:13.868Z,1003.02
2018-03-19T11:57:13.873Z,1003.11
2018-03-19T11:58:13.981Z,1003.11
2018-03-19T11:59:13.924Z,1003.10
2018-03-19T12:00:13.976Z,1003.09
2018-03-19T12:01:13.921Z,1003.08
2018-03-19T12:02:13.977Z,1003.10
2018-03-19T12:03:13.894Z,1003.05
2018-03-19T12:04:13.872Z,1003.06
2018-03-19T12:05:13.948Z,1003.06